Time;durP1;ratioP1;P1;durP2;ratioP2;P2;SDS_P1;SDS_P2;PMS_P1;PMS_P2;Temp;Humidity;BMP_temperature;BMP_pressure;BME280_temperature;BME280_humidity;BME280_pressure;Samples;Min_cycle;Max_cycle;Signal;HPM_P1;HPM_P2
2022/04/09 00:00:23;;;;;;;1.27;1.27;;;;;;;9.64;82.46;91603.66;5016054;28;20487;-79
2022/04/09 00:02:50;;;;;;;1.10;1.10;;;;;;;9.34;83.47;91589.34;5016065;28;20463;-79
2022/04/09 00:05:18;;;;;;;0.80;0.80;;;;;;;9.26;84.44;91595.66;5016511;28;20546;-79
2022/04/09 00:07:45;;;;;;;0.80;0.80;;;;;;;9.26;84.55;91593.16;5015622;28;20556;-79
2022/04/09 00:10:14;;;;;;;0.83;0.83;;;;;;;9.09;85.49;91589.84;5016503;28;20473;-78
2022/04/09 00:12:44;;;;;;;0.80;0.80;;;;;;;9.04;85.96;91598.53;5015509;28;20606;-78
2022/04/09 00:15:12;;;;;;;1.17;1.10;;;;;;;8.90;86.12;91588.38;5019498;28;20498;-79
2022/04/09 00:17:42;;;;;;;1.03;1.03;;;;;;;9.02;86.19;91601.13;5020464;28;20582;-79
2022/04/09 00:20:11;;;;;;;1.10;1.10;;;;;;;8.95;86.04;91582.22;5019545;28;20230;-80
2022/04/09 00:22:38;;;;;;;1.00;1.00;;;;;;;9.07;86.09;91605.94;5019611;28;20555;-79
2022/04/09 00:25:07;;;;;;;1.87;1.73;;;;;;;9.02;86.15;91586.00;5019834;28;20622;-78
2022/04/09 00:27:34;;;;;;;3.70;1.20;;;;;;;8.96;86.13;91578.78;5019022;28;20618;-79
2022/04/09 00:30:02;;;;;;;2.20;1.60;;;;;;;9.09;85.87;91599.91;5019101;28;20486;-78
2022/04/09 00:32:30;;;;;;;1.00;1.00;;;;;;;9.03;85.77;91579.28;5018987;28;20467;-79
2022/04/09 00:34:59;;;;;;;1.30;1.20;;;;;;;8.92;85.67;91546.28;5019229;28;20206;-79
2022/04/09 00:37:26;;;;;;;1.23;1.23;;;;;;;9.25;85.64;91589.00;5018777;28;20570;-80
2022/04/09 00:39:54;;;;;;;0.90;0.90;;;;;;;9.40;85.13;91595.75;5020612;28;20521;-79
2022/04/09 00:42:21;;;;;;;0.60;0.60;;;;;;;9.45;84.38;91588.75;5019480;28;20567;-79
2022/04/09 00:44:48;;;;;;;0.80;0.80;;;;;;;9.36;84.37;91581.66;5019152;28;20696;-79
2022/04/09 00:47:15;;;;;;;1.57;0.90;;;;;;;9.49;83.90;91592.72;5019988;28;20501;-79
2022/04/09 00:49:42;;;;;;;1.07;1.07;;;;;;;9.50;83.92;91590.13;5019393;28;20194;-79
2022/04/09 00:52:14;;;;;;;1.10;1.10;;;;;;;9.42;84.41;91584.66;5018590;28;20589;-79
2022/04/09 00:54:44;;;;;;;0.80;0.80;;;;;;;9.29;84.42;91566.09;5011922;28;20557;-79
2022/04/09 00:57:13;;;;;;;0.73;0.73;;;;;;;9.45;84.31;91593.78;5017796;28;20555;-79
2022/04/09 00:59:45;;;;;;;0.97;0.97;;;;;;;9.49;84.25;91583.44;5015406;28;20570;-79
2022/04/09 01:02:13;;;;;;;1.90;1.03;;;;;;;9.37;83.88;91555.56;5017287;28;20598;-79
2022/04/09 01:04:44;;;;;;;0.80;0.80;;;;;;;9.65;83.45;91582.59;5017360;28;20648;-79
2022/04/09 01:07:14;;;;;;;4.20;0.80;;;;;;;9.60;83.17;91575.28;5018624;28;20557;-79
2022/04/09 01:09:44;;;;;;;0.90;0.90;;;;;;;9.63;83.13;91571.78;5018165;28;20598;-79
2022/04/09 01:12:14;;;;;;;0.90;0.90;;;;;;;9.60;82.90;91569.44;5019065;28;20646;-79
2022/04/09 01:14:41;;;;;;;0.83;0.83;;;;;;;9.46;83.27;91548.31;5016624;28;20602;-76
2022/04/09 01:17:08;;;;;;;0.70;0.70;;;;;;;9.70;82.99;91573.06;5016936;28;20912;-78
2022/04/09 01:19:36;;;;;;;1.37;1.27;;;;;;;9.56;83.27;91551.16;5018779;28;20635;-79
2022/04/09 01:22:05;;;;;;;0.93;0.93;;;;;;;9.43;83.65;91535.06;5018253;28;20555;-78
2022/04/09 01:24:32;;;;;;;0.83;0.83;;;;;;;9.30;83.78;91517.28;5018328;28;20641;-79
2022/04/09 01:26:59;;;;;;;0.70;0.70;;;;;;;9.20;84.15;91512.84;5017981;28;20449;-78
2022/04/09 01:29:26;;;;;;;3.63;0.90;;;;;;;9.36;84.11;91549.72;5018012;28;20564;-79
2022/04/09 01:31:54;;;;;;;8.50;1.00;;;;;;;9.56;83.57;91561.22;5017496;28;20539;-80
2022/04/09 01:34:21;;;;;;;0.90;0.90;;;;;;;9.27;83.80;91521.69;5015913;28;20260;-80
2022/04/09 01:36:48;;;;;;;0.90;0.90;;;;;;;9.42;83.96;91556.13;5016305;28;20571;-79
2022/04/09 01:39:18;;;;;;;0.83;0.83;;;;;;;9.29;84.19;91528.28;5016788;28;20762;-79
2022/04/09 01:41:45;;;;;;;0.57;0.57;;;;;;;9.26;84.47;91515.03;5016764;28;20613;-79
2022/04/09 01:44:12;;;;;;;1.07;1.07;;;;;;;9.50;83.97;91542.22;5016139;28;20659;-79
2022/04/09 01:46:44;;;;;;;0.90;0.80;;;;;;;9.51;83.89;91551.41;5015943;28;20194;-79
2022/04/09 01:49:12;;;;;;;0.80;0.80;;;;;;;9.57;83.13;91550.25;5016921;28;20584;-79
2022/04/09 01:51:39;;;;;;;1.10;1.00;;;;;;;9.47;82.96;91523.91;5017944;28;20289;-79
2022/04/09 01:54:07;;;;;;;1.27;1.27;;;;;;;9.33;82.44;91507.06;5017575;28;20448;-80
2022/04/09 01:56:35;;;;;;;0.60;0.60;;;;;;;9.53;82.62;91534.47;5018160;28;20216;-78
2022/04/09 01:59:03;;;;;;;0.50;0.50;;;;;;;9.50;83.05;91554.81;5018282;28;20216;-79
2022/04/09 02:01:30;;;;;;;2.77;0.80;;;;;;;9.44;83.32;91544.25;5017494;28;20636;-80
2022/04/09 02:03:57;;;;;;;1.23;0.80;;;;;;;9.50;82.92;91551.47;5017288;28;20222;-80
2022/04/09 02:06:25;;;;;;;0.70;0.70;;;;;;;9.57;82.79;91552.78;5017602;28;20478;-79
2022/04/09 02:08:52;;;;;;;1.00;1.00;;;;;;;9.50;82.43;91537.19;5017207;28;20628;-80
2022/04/09 02:11:19;;;;;;;0.90;0.90;;;;;;;9.66;82.11;91544.69;5017520;28;20486;-80
2022/04/09 02:13:47;;;;;;;1.07;1.07;;;;;;;9.67;81.85;91522.81;5017746;28;20544;-80
2022/04/09 02:16:15;;;;;;;3.10;1.70;;;;;;;9.87;80.92;91552.72;5017412;28;20284;-80
2022/04/09 02:18:44;;;;;;;1.80;1.73;;;;;;;9.85;80.39;91550.31;5017798;28;20482;-80
2022/04/09 02:21:12;;;;;;;2.77;1.90;;;;;;;9.70;80.72;91528.47;5018395;28;20206;-80
2022/04/09 02:23:39;;;;;;;2.77;2.53;;;;;;;9.79;80.20;91554.91;5016718;28;20530;-80
2022/04/09 02:26:08;;;;;;;1.87;1.77;;;;;;;9.76;80.67;91558.38;5016575;28;20323;-79
2022/04/09 02:28:35;;;;;;;2.77;1.80;;;;;;;9.63;80.91;91547.41;5017525;28;20552;-80
2022/04/09 02:31:04;;;;;;;1.93;1.80;;;;;;;9.52;82.14;91534.56;5017015;28;20600;-79
2022/04/09 02:33:32;;;;;;;1.67;1.57;;;;;;;9.35;82.36;91519.59;5017125;28;20490;-80
2022/04/09 02:36:00;;;;;;;3.97;1.87;;;;;;;8.89;82.91;91461.66;5016270;28;20572;-80
2022/04/09 02:38:27;;;;;;;3.07;2.83;;;;;;;9.29;83.01;91547.63;5016661;28;20599;-80
2022/04/09 02:40:55;;;;;;;1.87;1.77;;;;;;;9.18;83.69;91539.84;5016720;28;20216;-79
2022/04/09 02:43:22;;;;;;;2.87;2.77;;;;;;;9.18;84.05;91534.81;5016679;28;20590;-80
2022/04/09 02:45:50;;;;;;;2.80;2.60;;;;;;;9.07;84.62;91522.81;5017060;28;20619;-80
2022/04/09 02:48:19;;;;;;;2.53;2.33;;;;;;;9.04;84.95;91520.44;5016843;28;20248;-79
2022/04/09 02:50:48;;;;;;;1.73;1.63;;;;;;;9.00;85.49;91524.03;5016437;28;20224;-80
2022/04/09 02:53:15;;;;;;;1.20;1.20;;;;;;;8.93;84.85;91500.06;5016572;28;20305;-80
2022/04/09 02:55:42;;;;;;;1.43;1.43;;;;;;;8.91;84.87;91501.84;5016257;28;20195;-79
2022/04/09 02:58:09;;;;;;;3.03;2.33;;;;;;;9.01;84.95;91518.88;5017231;28;20584;-80
2022/04/09 03:00:36;;;;;;;2.70;2.00;;;;;;;8.96;85.58;91522.56;5016249;28;20606;-79
2022/04/09 03:03:04;;;;;;;1.07;1.07;;;;;;;9.02;85.09;91519.69;5015909;28;20590;-79
2022/04/09 03:05:33;;;;;;;4.37;1.40;;;;;;;9.16;84.66;91514.75;5015931;28;20572;-80
2022/04/09 03:08:00;;;;;;;0.90;0.90;;;;;;;9.25;84.34;91505.84;5016103;28;20559;-79
2022/04/09 03:10:27;;;;;;;1.20;1.20;;;;;;;9.31;83.39;91508.03;5015934;28;20194;-80
2022/04/09 03:12:55;;;;;;;0.93;0.93;;;;;;;9.13;83.28;91475.41;5016426;28;20268;-80
2022/04/09 03:15:22;;;;;;;1.43;1.30;;;;;;;9.41;83.43;91522.53;5016211;28;20474;-80
2022/04/09 03:17:49;;;;;;;1.20;1.20;;;;;;;9.31;83.46;91487.88;5016529;28;20626;-80
2022/04/09 03:20:16;;;;;;;6.40;1.80;;;;;;;9.26;83.28;91492.34;5017059;28;20536;-79
2022/04/09 03:22:49;;;;;;;3.27;2.57;;;;;;;8.88;83.39;91431.50;5016317;28;20487;-80
2022/04/09 03:25:17;;;;;;;3.43;3.13;;;;;;;9.00;84.53;91489.59;5016841;28;20498;-79
2022/04/09 03:27:44;;;;;;;3.17;2.90;;;;;;;9.00;84.62;91496.31;5016088;28;20494;-80
2022/04/09 03:30:12;;;;;;;5.63;3.10;;;;;;;9.16;85.12;91509.69;5016542;28;20194;-80
2022/04/09 03:32:41;;;;;;;3.63;2.27;;;;;;;8.97;86.01;91502.34;5015946;28;20595;-80
2022/04/09 03:35:10;;;;;;;10.17;2.73;;;;;;;8.62;86.97;91468.16;5015851;28;20206;-80
2022/04/09 03:37:38;;;;;;;4.40;2.77;;;;;;;8.84;87.09;91501.38;5016022;28;20572;-79
2022/04/09 03:40:08;;;;;;;2.63;2.43;;;;;;;8.90;86.20;91495.22;5015437;28;20233;-80
2022/04/09 03:42:36;;;;;;;5.83;3.27;;;;;;;8.82;86.31;91488.06;5016267;28;20566;-79
2022/04/09 03:45:03;;;;;;;10.73;2.73;;;;;;;8.97;86.21;91512.41;5015569;28;20218;-80
2022/04/09 03:47:33;;;;;;;2.70;2.50;;;;;;;8.64;86.63;91459.66;5016463;28;20206;-79
2022/04/09 03:50:01;;;;;;;2.63;2.43;;;;;;;8.53;86.42;91418.34;5015672;28;20547;-80
2022/04/09 03:52:28;;;;;;;3.97;2.87;;;;;;;9.11;86.79;91501.59;5016395;28;20671;-80
2022/04/09 03:54:56;;;;;;;3.83;3.30;;;;;;;8.85;86.74;91508.03;5017262;28;20613;-80
2022/04/09 03:57:24;;;;;;;4.67;4.37;;;;;;;8.86;86.77;91506.31;5016873;28;20198;-80
2022/04/09 03:59:55;;;;;;;9.90;5.00;;;;;;;8.88;87.06;91507.88;5015441;28;20223;-80
2022/04/09 04:02:23;;;;;;;12.97;8.43;;;;;;;8.66;86.98;91479.72;5015417;28;20606;-80
2022/04/09 04:04:50;;;;;;;21.27;10.17;;;;;;;8.76;87.73;91513.56;5015854;28;20616;-79
2022/04/09 04:07:22;;;;;;;17.87;7.23;;;;;;;8.45;87.96;91478.34;5015877;28;20493;-79
2022/04/09 04:09:50;;;;;;;9.30;6.60;;;;;;;8.66;88.06;91513.25;5016317;28;20223;-80
2022/04/09 04:12:17;;;;;;;13.70;4.07;;;;;;;8.63;87.56;91503.34;5016138;28;20487;-80
2022/04/09 04:14:46;;;;;;;15.20;4.43;;;;;;;8.79;87.66;91525.19;5015708;28;20538;-80
2022/04/09 04:17:13;;;;;;;5.33;4.90;;;;;;;8.82;87.69;91509.91;5016475;28;20275;-80
2022/04/09 04:19:41;;;;;;;5.67;5.20;;;;;;;8.85;87.44;91523.13;5016000;28;20190;-80
2022/04/09 04:22:08;;;;;;;5.87;4.43;;;;;;;8.80;87.74;91527.59;5015615;28;20590;-80
2022/04/09 04:24:37;;;;;;;14.70;4.83;;;;;;;8.78;87.76;91533.63;5015681;28;20299;-79
2022/04/09 04:27:06;;;;;;;4.20;3.80;;;;;;;8.78;87.79;91531.13;5014363;28;20536;-78
2022/04/09 04:29:33;;;;;;;2.77;2.67;;;;;;;8.79;87.63;91533.53;5014850;28;20559;-81
2022/04/09 04:32:03;;;;;;;4.40;4.07;;;;;;;8.67;87.89;91531.69;5006897;28;20567;-79
2022/04/09 04:34:30;;;;;;;7.40;5.40;;;;;;;8.69;87.93;91534.91;5001638;28;20468;-77
2022/04/09 04:36:57;;;;;;;7.63;4.87;;;;;;;8.52;88.28;91507.31;5010339;28;20271;-78
2022/04/09 04:39:24;;;;;;;4.43;4.03;;;;;;;8.65;88.26;91529.25;5006941;28;20567;-78
2022/04/09 04:41:51;;;;;;;9.33;6.03;;;;;;;8.65;88.56;91530.94;5001791;28;20222;-78
2022/04/09 04:44:19;;;;;;;3.20;3.00;;;;;;;8.59;88.93;91529.56;5010892;28;20555;-77
2022/04/09 04:46:46;;;;;;;3.37;3.17;;;;;;;8.61;89.04;91526.97;5007961;28;20597;-78
2022/04/09 04:49:15;;;;;;;5.50;4.80;;;;;;;8.56;88.78;91502.03;5008129;28;20224;-78
2022/04/09 04:51:42;;;;;;;4.50;4.20;;;;;;;8.74;89.02;91520.38;5002074;28;20584;-78
2022/04/09 04:54:09;;;;;;;4.37;3.80;;;;;;;8.77;88.78;91515.19;5007984;28;20598;-78
2022/04/09 04:56:37;;;;;;;7.77;3.80;;;;;;;8.69;88.81;91500.50;4988500;28;20567;-78
2022/04/09 04:59:04;;;;;;;9.40;3.70;;;;;;;8.77;89.37;91517.72;5006542;28;20555;-78
2022/04/09 05:01:32;;;;;;;10.20;5.87;;;;;;;8.85;88.81;91515.59;5007664;28;20582;-78
2022/04/09 05:03:59;;;;;;;12.60;5.67;;;;;;;8.95;88.87;91509.19;5013584;28;20605;-80
2022/04/09 05:06:28;;;;;;;11.23;6.87;;;;;;;9.13;88.59;91512.38;5010210;28;20510;-77
2022/04/09 05:08:55;;;;;;;4.80;4.47;;;;;;;9.36;87.82;91518.66;5013966;28;20583;-78
2022/04/09 05:11:23;;;;;;;5.30;5.00;;;;;;;9.49;87.09;91505.28;5012334;28;20641;-78
2022/04/09 05:13:50;;;;;;;5.17;3.40;;;;;;;9.80;86.69;91518.69;5012129;28;20562;-78
2022/04/09 05:16:17;;;;;;;1.90;1.87;;;;;;;9.89;85.14;91521.50;5005524;28;20577;-78
2022/04/09 05:18:45;;;;;;;1.57;1.47;;;;;;;9.81;84.17;91502.63;5010796;28;20578;-78
2022/04/09 05:21:12;;;;;;;4.80;4.40;;;;;;;9.87;84.26;91513.19;5009866;28;20504;-75
2022/04/09 05:23:41;;;;;;;6.43;3.67;;;;;;;10.04;83.66;91522.31;5010819;28;20505;-76
2022/04/09 05:26:08;;;;;;;7.87;5.33;;;;;;;10.10;83.37;91511.84;5009049;28;20636;-74
2022/04/09 05:28:35;;;;;;;5.27;4.77;;;;;;;10.41;82.82;91517.66;5012577;28;20579;-74
2022/04/09 05:31:03;;;;;;;6.87;6.17;;;;;;;10.58;81.94;91514.94;5006240;28;20547;-76
2022/04/09 05:33:30;;;;;;;3.47;3.27;;;;;;;10.79;80.12;91524.53;5014051;28;20536;-76
2022/04/09 05:35:57;;;;;;;4.33;3.93;;;;;;;10.96;79.04;91513.41;5015584;28;20216;-76
2022/04/09 05:38:25;;;;;;;6.97;5.43;;;;;;;11.17;78.21;91523.88;5007668;28;20500;-75
2022/04/09 05:40:53;;;;;;;9.80;7.10;;;;;;;11.28;78.10;91518.16;5007847;28;20587;-76
2022/04/09 05:43:23;;;;;;;15.80;10.30;;;;;;;11.27;76.79;91503.91;5011750;28;20626;-76
2022/04/09 05:45:51;;;;;;;32.70;11.83;;;;;;;11.50;75.83;91526.81;5010196;28;20218;-75
2022/04/09 05:48:18;;;;;;;26.10;12.97;;;;;;;11.60;76.33;91517.72;5017594;28;20553;-76
2022/04/09 05:50:46;;;;;;;15.70;10.87;;;;;;;11.70;76.12;91517.97;5008173;28;20603;-76
2022/04/09 05:53:13;;;;;;;22.70;11.40;;;;;;;11.83;75.24;91518.03;5009516;28;20215;-75
2022/04/09 05:55:40;;;;;;;16.93;11.13;;;;;;;11.81;74.33;91497.88;5009855;28;20563;-75
2022/04/09 05:58:09;;;;;;;10.37;9.33;;;;;;;12.09;73.71;91521.38;5004330;28;20572;-76
2022/04/09 06:00:36;;;;;;;20.60;10.83;;;;;;;12.16;73.06;91528.47;5010836;28;20600;-77
2022/04/09 06:03:07;;;;;;;17.73;12.17;;;;;;;12.23;72.89;91526.31;5011582;28;20610;-77
2022/04/09 06:05:35;;;;;;;8.00;7.20;;;;;;;12.24;72.80;91518.63;5001627;28;20518;-75
2022/04/09 06:08:03;;;;;;;3.90;3.60;;;;;;;11.91;74.75;91440.66;4998723;28;20625;-75
2022/04/09 06:10:32;;;;;;;2.87;2.77;;;;;;;12.01;74.54;91454.31;5008278;28;20646;-75
2022/04/09 06:13:00;;;;;;;3.50;3.30;;;;;;;12.42;74.61;91511.53;4997019;28;20474;-76
2022/04/09 06:15:28;;;;;;;3.93;3.63;;;;;;;12.49;73.19;91509.38;5014928;28;20690;-75
2022/04/09 06:17:55;;;;;;;12.33;3.53;;;;;;;12.53;73.56;91508.25;5003687;28;20201;-75
2022/04/09 06:20:23;;;;;;;2.30;2.20;;;;;;;12.59;74.93;91502.78;5000819;28;20559;-75
2022/04/09 06:22:50;;;;;;;7.87;3.23;;;;;;;12.65;74.41;91497.28;5006075;28;20229;-74
2022/04/09 06:25:17;;;;;;;5.17;3.73;;;;;;;12.66;74.25;91487.06;5022973;28;20617;-75
2022/04/09 06:27:45;;;;;;;4.40;4.20;;;;;;;12.84;72.36;91506.03;5025643;28;20518;-75
2022/04/09 06:30:13;;;;;;;4.20;3.83;;;;;;;12.91;71.29;91506.44;5021884;28;20561;-74
2022/04/09 06:32:42;;;;;;;6.00;5.37;;;;;;;13.03;70.28;91507.31;5019579;28;20492;-75
2022/04/09 06:35:10;;;;;;;6.00;5.50;;;;;;;13.02;70.41;91496.34;5030234;28;20559;-75
2022/04/09 06:37:40;;;;;;;7.20;5.37;;;;;;;12.98;68.26;91477.22;5036684;28;20565;-75
2022/04/09 06:40:09;;;;;;;5.28;4.85;;;;;;;13.29;67.48;91509.66;5027490;28;20581;-74
2022/04/09 06:42:37;;;;;;;7.93;4.57;;;;;;;13.39;68.26;91499.69;5030082;28;20550;-75
2022/04/09 06:45:05;;;;;;;3.20;3.00;;;;;;;13.53;67.93;91491.09;5021972;28;20453;-74
2022/04/09 06:47:32;;;;;;;7.65;3.15;;;;;;;13.67;64.97;91512.03;5028646;28;20582;-74
2022/04/09 06:50:01;;;;;;;3.67;3.10;;;;;;;13.75;61.85;91511.44;5027345;28;20582;-76
2022/04/09 06:52:28;;;;;;;3.10;2.90;;;;;;;13.79;60.74;91512.06;5029565;28;20504;-76
2022/04/09 06:54:57;;;;;;;3.13;2.92;;;;;;;13.94;63.04;91491.44;5026923;28;20193;-76
2022/04/09 06:57:24;;;;;;;2.35;2.25;;;;;;;14.05;61.83;91510.97;5023936;28;20457;-76
2022/04/09 06:59:52;;;;;;;2.85;2.50;;;;;;;14.06;61.65;91484.66;5029381;28;20635;-75
2022/04/09 07:02:19;;;;;;;3.15;2.22;;;;;;;14.28;62.20;91494.81;5027271;28;20613;-76
2022/04/09 07:04:46;;;;;;;4.15;2.03;;;;;;;14.38;60.66;91505.94;5016924;28;20439;-77
2022/04/09 07:07:20;;;;;;;2.08;1.98;;;;;;;14.52;60.12;91502.38;5020758;28;20599;-76
2022/04/09 07:09:48;;;;;;;2.03;1.92;;;;;;;14.51;59.33;91483.78;5024930;28;20597;-76
2022/04/09 07:12:15;;;;;;;4.35;1.30;;;;;;;14.77;57.12;91516.56;5024677;28;20581;-75
2022/04/09 07:14:42;;;;;;;1.65;1.55;;;;;;;14.96;57.13;91518.53;5023887;28;20601;-76
2022/04/09 07:17:10;;;;;;;1.92;1.20;;;;;;;15.08;56.21;91520.94;5030324;28;20730;-76
2022/04/09 07:19:38;;;;;;;3.13;1.65;;;;;;;15.12;54.71;91531.66;5031114;28;20899;-76
2022/04/09 07:22:06;;;;;;;1.08;1.08;;;;;;;15.12;54.03;91526.59;5032853;28;20275;-75
2022/04/09 07:24:34;;;;;;;1.40;1.30;;;;;;;15.15;54.66;91503.47;5038183;28;20596;-74
2022/04/09 07:27:02;;;;;;;1.25;1.25;;;;;;;15.30;54.36;91523.44;5037942;28;20229;-76
2022/04/09 07:29:29;;;;;;;1.38;1.38;;;;;;;15.41;54.18;91520.03;5039443;28;20520;-75
2022/04/09 07:31:56;;;;;;;4.22;1.63;;;;;;;15.46;54.18;91515.41;5040929;28;20683;-76
2022/04/09 07:34:23;;;;;;;1.27;1.27;;;;;;;15.56;55.29;91493.41;5033360;28;20267;-76
2022/04/09 07:36:51;;;;;;;1.40;1.30;;;;;;;15.62;54.51;91495.47;5034507;28;20209;-74
2022/04/09 07:39:18;;;;;;;2.60;1.05;;;;;;;15.75;53.83;91495.28;5035112;28;20267;-76
2022/04/09 07:41:47;;;;;;;1.20;1.13;;;;;;;15.89;52.95;91500.06;5034678;28;20532;-73
2022/04/09 07:44:14;;;;;;;1.15;1.15;;;;;;;15.92;52.46;91486.28;5029070;28;20471;-74
2022/04/09 07:46:41;;;;;;;1.50;1.40;;;;;;;16.01;51.91;91499.09;5034547;28;20706;-72
2022/04/09 07:49:09;;;;;;;3.17;1.48;;;;;;;16.18;51.79;91492.63;5035568;28;20220;-73
2022/04/09 07:51:36;;;;;;;1.02;1.02;;;;;;;16.27;50.21;91511.47;5034989;28;20193;-73
2022/04/09 07:54:03;;;;;;;1.88;1.50;;;;;;;16.29;52.42;91481.53;5035784;28;20581;-73
2022/04/09 07:56:31;;;;;;;1.58;1.58;;;;;;;16.38;50.69;91484.16;5035343;28;20463;-73
2022/04/09 07:58:59;;;;;;;1.20;1.20;;;;;;;16.49;50.00;91491.72;5035294;28;20479;-73
2022/04/09 08:01:27;;;;;;;6.35;1.60;;;;;;;16.67;50.69;91483.50;5034992;28;20673;-74
2022/04/09 08:03:56;;;;;;;2.10;2.00;;;;;;;16.79;50.21;91478.16;5035279;28;20458;-74
2022/04/09 08:06:23;;;;;;;2.28;2.17;;;;;;;16.86;50.94;91473.34;5023047;28;20672;-73
2022/04/09 08:08:51;;;;;;;2.95;2.75;;;;;;;16.98;51.11;91474.88;5045817;28;20516;-73
2022/04/09 08:11:20;;;;;;;2.38;2.28;;;;;;;17.10;50.62;91471.25;5026812;28;20601;-74
2022/04/09 08:13:48;;;;;;;2.35;2.25;;;;;;;17.14;51.93;91459.84;5033179;28;20260;-74
2022/04/09 08:16:17;;;;;;;2.05;1.95;;;;;;;17.28;51.04;91468.88;5028268;28;20266;-74
2022/04/09 08:18:44;;;;;;;2.38;1.80;;;;;;;17.31;50.07;91466.03;5034268;28;20573;-75
2022/04/09 08:21:12;;;;;;;2.75;1.75;;;;;;;17.43;50.08;91462.44;5039033;28;20599;-74
2022/04/09 08:23:39;;;;;;;4.50;1.52;;;;;;;17.58;47.68;91478.97;5030954;28;20603;-75
2022/04/09 08:26:07;;;;;;;1.20;1.20;;;;;;;17.73;47.64;91475.13;5015363;28;20670;-74
2022/04/09 08:28:36;;;;;;;1.38;1.27;;;;;;;17.70;45.71;91479.66;5014780;28;20582;-74
2022/04/09 08:31:03;;;;;;;3.40;1.20;;;;;;;17.76;46.38;91474.84;4995124;28;20589;-75
2022/04/09 08:33:32;;;;;;;1.25;1.23;;;;;;;17.84;45.92;91451.16;4998571;28;20556;-74
2022/04/09 08:36:00;;;;;;;3.50;1.17;;;;;;;17.98;45.87;91468.63;5010800;28;20228;-74
2022/04/09 08:38:28;;;;;;;11.50;2.35;;;;;;;18.11;47.37;91451.25;5018361;28;20667;-73
2022/04/09 08:40:56;;;;;;;2.20;1.80;;;;;;;18.22;46.65;91455.41;5016807;28;20599;-75
2022/04/09 08:43:23;;;;;;;1.25;1.25;;;;;;;18.23;45.56;91473.16;5015368;28;20609;-75
2022/04/09 08:45:50;;;;;;;1.45;1.42;;;;;;;18.38;45.99;91465.84;5017884;28;20561;-75
2022/04/09 08:48:21;;;;;;;4.22;1.67;;;;;;;18.49;45.50;91467.44;5001397;28;20575;-75
2022/04/09 08:50:51;;;;;;;1.70;1.17;;;;;;;18.58;45.01;91466.63;5013082;28;20593;-74
2022/04/09 08:53:18;;;;;;;1.10;1.08;;;;;;;18.62;45.23;91465.41;5013456;28;20538;-74
2022/04/09 08:55:47;;;;;;;1.52;1.42;;;;;;;18.77;47.68;91453.75;5000462;28;20481;-73
2022/04/09 08:58:15;;;;;;;1.60;1.50;;;;;;;18.84;46.56;91449.69;4998833;28;20599;-74
2022/04/09 09:00:46;;;;;;;1.35;1.35;;;;;;;18.96;45.50;91465.66;5000111;28;20560;-73
2022/04/09 09:03:17;;;;;;;1.20;1.20;;;;;;;18.94;44.30;91470.09;5008021;28;20573;-75
2022/04/09 09:05:48;;;;;;;1.30;1.30;;;;;;;19.00;45.30;91454.16;5006092;28;20276;-74
2022/04/09 09:08:17;;;;;;;1.67;1.58;;;;;;;19.25;43.53;91478.31;5008758;28;20611;-74
2022/04/09 09:10:44;;;;;;;1.15;1.15;;;;;;;19.56;41.80;91492.41;5007316;28;20256;-72
2022/04/09 09:13:13;;;;;;;2.20;1.20;;;;;;;19.73;37.97;91501.84;5006007;28;20602;-75
2022/04/09 09:15:51;;;;;;;3.90;1.10;;;;;;;19.99;38.34;91504.50;5007291;28;20194;-75
2022/04/09 09:18:32;;;;;;;1.77;1.02;;;;;;;20.09;36.99;91519.81;5002249;28;20202;-76
2022/04/09 09:21:00;;;;;;;1.50;1.40;;;;;;;20.13;36.94;91501.41;4998824;28;20304;-74
2022/04/09 09:23:32;;;;;;;1.88;1.27;;;;;;;20.33;37.96;91488.44;4999550;28;20325;-73
2022/04/09 09:26:01;;;;;;;1.05;1.05;;;;;;;20.52;36.25;91514.69;5016383;28;20546;-74
2022/04/09 09:28:30;;;;;;;0.85;0.85;;;;;;;20.55;35.48;91516.16;5015607;28;20594;-74
2022/04/09 09:30:58;;;;;;;2.95;1.15;;;;;;;20.51;35.75;91509.69;4999616;28;20210;-74
2022/04/09 09:33:26;;;;;;;5.88;2.47;;;;;;;20.39;35.96;91486.09;5017599;28;20233;-73
2022/04/09 09:35:55;;;;;;;7.15;1.27;;;;;;;20.48;35.84;91486.94;5018088;28;20486;-73
2022/04/09 09:38:24;;;;;;;0.80;0.80;;;;;;;20.57;36.53;91475.75;5009839;28;20195;-74
2022/04/09 09:40:53;;;;;;;1.98;0.75;;;;;;;20.71;35.09;91488.03;5002878;28;20662;-75
2022/04/09 09:43:24;;;;;;;1.45;1.45;;;;;;;20.82;36.93;91469.00;5005440;28;20537;-75
2022/04/09 09:45:53;;;;;;;0.60;0.60;;;;;;;20.95;36.02;91467.63;5011164;28;20565;-74
2022/04/09 09:48:21;;;;;;;1.58;1.48;;;;;;;21.04;36.37;91455.59;5016464;28;20675;-74
2022/04/09 09:50:49;;;;;;;1.10;1.10;;;;;;;21.07;36.34;91466.34;5015992;28;20191;-74
2022/04/09 09:53:16;;;;;;;1.10;1.10;;;;;;;21.23;34.51;91488.78;5006797;28;20271;-75
2022/04/09 09:55:44;;;;;;;1.13;1.10;;;;;;;21.17;32.75;91493.72;5006294;28;20467;-74
2022/04/09 09:58:16;;;;;;;1.20;1.10;;;;;;;21.24;30.94;91489.59;5001920;28;20559;-75
2022/04/09 10:00:44;;;;;;;1.25;0.90;;;;;;;21.29;33.01;91472.75;4999787;28;20662;-75
2022/04/09 10:03:13;;;;;;;4.57;0.90;;;;;;;21.39;32.55;91477.75;5000489;28;20455;-75
2022/04/09 10:05:41;;;;;;;0.95;0.77;;;;;;;21.58;32.20;91477.44;4999916;28;20571;-74
2022/04/09 10:08:09;;;;;;;1.00;1.00;;;;;;;21.39;31.81;91478.53;5002557;28;20503;-75
2022/04/09 10:10:43;;;;;;;0.85;0.85;;;;;;;21.50;31.88;91470.53;4999772;28;20586;-75
2022/04/09 10:13:11;;;;;;;5.15;1.00;;;;;;;21.59;32.64;91458.50;5006655;28;20202;-74
2022/04/09 10:15:41;;;;;;;6.03;0.98;;;;;;;21.56;30.39;91487.09;5013577;28;20562;-76
2022/04/09 10:18:10;;;;;;;0.70;0.70;;;;;;;21.59;30.04;91480.81;5015666;28;20589;-74
2022/04/09 10:20:37;;;;;;;0.85;0.85;;;;;;;22.00;28.92;91486.84;5017517;28;20485;-75
2022/04/09 10:23:08;;;;;;;1.00;0.80;;;;;;;22.76;28.01;91489.88;5016286;28;20651;-74
2022/04/09 10:25:39;;;;;;;0.73;0.73;;;;;;;23.92;26.45;91496.81;5013668;28;20540;-74
2022/04/09 10:28:08;;;;;;;1.42;0.80;;;;;;;24.95;24.62;91504.91;5012286;28;20630;-75
2022/04/09 10:30:41;;;;;;;1.08;1.08;;;;;;;26.30;24.98;91486.22;5014238;28;20605;-74
2022/04/09 10:33:23;;;;;;;1.13;1.13;;;;;;;27.10;24.62;91498.78;5014777;28;20194;-75
2022/04/09 10:35:50;;;;;;;1.33;0.93;;;;;;;27.74;21.34;91527.09;5016429;28;20533;-74
2022/04/09 10:38:23;;;;;;;0.57;0.57;;;;;;;27.82;21.18;91516.56;5017045;28;20470;-75
2022/04/09 10:41:30;;;;;;;3.55;0.82;;;;;;;27.53;22.47;91506.44;5010514;28;20578;-74
2022/04/09 10:43:59;;;;;;;0.52;0.52;;;;;;;27.58;21.59;91504.88;5011181;28;20546;-74
2022/04/09 10:46:38;;;;;;;0.80;0.80;;;;;;;27.60;21.03;91518.44;5016315;28;20296;-74
2022/04/09 10:49:22;;;;;;;0.57;0.57;;;;;;;27.08;20.74;91523.31;5012938;28;20213;-75
2022/04/09 10:52:17;;;;;;;2.42;0.70;;;;;;;26.30;20.97;91530.25;5014445;28;20578;-74
2022/04/09 10:55:31;;;;;;;3.30;1.00;;;;;;;25.64;22.45;91507.19;4994239;28;20599;-74
2022/04/09 10:58:08;;;;;;;3.58;0.80;;;;;;;24.89;21.98;91505.59;5009118;28;20519;-74
2022/04/09 11:00:37;;;;;;;0.85;0.80;;;;;;;24.69;24.11;91473.47;5004505;28;20594;-75
2022/04/09 11:03:31;;;;;;;1.40;1.40;;;;;;;24.81;22.71;91490.13;5009180;28;20299;-76
2022/04/09 11:06:32;;;;;;;1.30;0.98;;;;;;;25.43;22.22;91502.72;5015625;28;20469;-75
2022/04/09 11:08:59;;;;;;;1.25;0.60;;;;;;;25.43;22.17;91482.03;5014125;28;20633;-75
2022/04/09 11:11:27;;;;;;;2.42;0.57;;;;;;;25.12;22.23;91508.91;5010835;28;20301;-75
2022/04/09 11:13:54;;;;;;;1.15;0.90;;;;;;;24.84;21.57;91518.22;5008811;28;20577;-75
2022/04/09 11:16:22;;;;;;;1.48;0.50;;;;;;;24.24;22.12;91523.38;5013524;28;20194;-74
2022/04/09 11:18:51;;;;;;;0.70;0.70;;;;;;;23.86;21.69;91518.13;5011798;28;20536;-74
2022/04/09 11:21:19;;;;;;;2.10;1.02;;;;;;;23.53;22.29;91511.56;5009827;28;20590;-76
2022/04/09 11:23:46;;;;;;;0.80;0.80;;;;;;;23.44;22.83;91499.63;5017012;28;20525;-74
2022/04/09 11:26:17;;;;;;;0.70;0.70;;;;;;;23.39;23.18;91487.25;5035380;28;20589;-75
2022/04/09 11:28:45;;;;;;;0.70;0.70;;;;;;;23.48;24.43;91482.91;5034921;28;20244;-75
2022/04/09 11:31:13;;;;;;;2.33;0.65;;;;;;;23.44;22.30;91495.28;5033903;28;20505;-76
2022/04/09 11:33:57;;;;;;;0.57;0.57;;;;;;;23.22;22.13;91495.22;5021015;28;20540;-75
2022/04/09 11:36:25;;;;;;;0.70;0.70;;;;;;;23.06;24.32;91480.63;5035028;28;20614;-75
2022/04/09 11:38:52;;;;;;;0.60;0.60;;;;;;;23.13;23.94;91469.47;5033030;28;20562;-75
2022/04/09 11:41:20;;;;;;;0.73;0.70;;;;;;;23.18;24.92;91465.59;5033723;28;20585;-73
2022/04/09 11:43:50;;;;;;;0.80;0.80;;;;;;;23.13;25.42;91464.34;5030916;28;20628;-76